sensor_id;sensor_type;location;lat;lon;timestamp;temperature;humidity
13268;DHT22;6702;47.068;15.458;2022-07-26T00:02:25;27.30;96.50
13268;DHT22;6702;47.068;15.458;2022-07-26T00:05:29;27.20;96.50
13268;DHT22;6702;47.068;15.458;2022-07-26T00:08:33;27.30;96.60
13268;DHT22;6702;47.068;15.458;2022-07-26T00:11:36;27.30;96.60
13268;DHT22;6702;47.068;15.458;2022-07-26T00:14:40;27.30;96.60
13268;DHT22;6702;47.068;15.458;2022-07-26T00:17:43;27.30;96.60
13268;DHT22;6702;47.068;15.458;2022-07-26T00:20:46;27.30;96.70
13268;DHT22;6702;47.068;15.458;2022-07-26T00:23:51;27.20;96.70
13268;DHT22;6702;47.068;15.458;2022-07-26T00:26:54;27.10;96.00
13268;DHT22;6702;47.068;15.458;2022-07-26T00:29:57;27.10;95.70
13268;DHT22;6702;47.068;15.458;2022-07-26T00:33:00;27.00;95.40
13268;DHT22;6702;47.068;15.458;2022-07-26T00:36:04;27.00;95.30
13268;DHT22;6702;47.068;15.458;2022-07-26T00:39:09;27.00;95.20
13268;DHT22;6702;47.068;15.458;2022-07-26T00:42:12;27.00;95.10
13268;DHT22;6702;47.068;15.458;2022-07-26T00:45:16;27.00;94.80
13268;DHT22;6702;47.068;15.458;2022-07-26T00:48:19;27.00;94.70
13268;DHT22;6702;47.068;15.458;2022-07-26T00:51:22;27.00;94.70
13268;DHT22;6702;47.068;15.458;2022-07-26T00:54:27;27.00;94.50
13268;DHT22;6702;47.068;15.458;2022-07-26T00:57:30;27.00;95.30
13268;DHT22;6702;47.068;15.458;2022-07-26T01:00:33;27.00;95.80
13268;DHT22;6702;47.068;15.458;2022-07-26T01:03:36;27.00;96.30
13268;DHT22;6702;47.068;15.458;2022-07-26T01:06:41;26.80;96.70
13268;DHT22;6702;47.068;15.458;2022-07-26T01:09:45;26.80;96.80
13268;DHT22;6702;47.068;15.458;2022-07-26T01:12:49;26.70;96.50
13268;DHT22;6702;47.068;15.458;2022-07-26T01:15:52;26.70;96.50
13268;DHT22;6702;47.068;15.458;2022-07-26T01:18:55;26.50;96.50
13268;DHT22;6702;47.068;15.458;2022-07-26T01:22:00;26.50;96.80
13268;DHT22;6702;47.068;15.458;2022-07-26T01:25:04;26.40;96.60
13268;DHT22;6702;47.068;15.458;2022-07-26T01:28:07;26.40;96.60
13268;DHT22;6702;47.068;15.458;2022-07-26T01:31:10;26.30;96.00
13268;DHT22;6702;47.068;15.458;2022-07-26T01:34:13;26.30;95.00
13268;DHT22;6702;47.068;15.458;2022-07-26T01:37:18;26.20;94.50
13268;DHT22;6702;47.068;15.458;2022-07-26T01:40:21;26.20;95.80
13268;DHT22;6702;47.068;15.458;2022-07-26T01:43:24;26.20;96.00
13268;DHT22;6702;47.068;15.458;2022-07-26T01:46:28;26.20;95.80
13268;DHT22;6702;47.068;15.458;2022-07-26T01:49:31;26.20;94.90
13268;DHT22;6702;47.068;15.458;2022-07-26T01:52:36;26.10;94.40
13268;DHT22;6702;47.068;15.458;2022-07-26T01:55:40;26.00;94.80
13268;DHT22;6702;47.068;15.458;2022-07-26T01:58:43;25.90;95.20
13268;DHT22;6702;47.068;15.458;2022-07-26T02:01:46;25.90;95.50
13268;DHT22;6702;47.068;15.458;2022-07-26T02:04:49;25.80;95.10
13268;DHT22;6702;47.068;15.458;2022-07-26T02:08:03;25.80;94.50
13268;DHT22;6702;47.068;15.458;2022-07-26T02:11:07;25.70;94.00
13268;DHT22;6702;47.068;15.458;2022-07-26T02:14:10;25.70;94.20
13268;DHT22;6702;47.068;15.458;2022-07-26T02:17:26;25.50;93.90
13268;DHT22;6702;47.068;15.458;2022-07-26T02:20:29;25.50;93.50
13268;DHT22;6702;47.068;15.458;2022-07-26T02:23:35;25.40;93.20
13268;DHT22;6702;47.068;15.458;2022-07-26T02:26:42;25.40;92.00
13268;DHT22;6702;47.068;15.458;2022-07-26T02:29:46;25.40;92.10
13268;DHT22;6702;47.068;15.458;2022-07-26T02:32:49;25.40;91.10
13268;DHT22;6702;47.068;15.458;2022-07-26T02:35:52;25.60;90.90
13268;DHT22;6702;47.068;15.458;2022-07-26T02:38:56;25.50;90.00
13268;DHT22;6702;47.068;15.458;2022-07-26T02:42:01;25.60;90.00
13268;DHT22;6702;47.068;15.458;2022-07-26T02:45:05;25.60;90.10
13268;DHT22;6702;47.068;15.458;2022-07-26T02:48:08;25.60;90.00
13268;DHT22;6702;47.068;15.458;2022-07-26T02:51:11;25.50;89.60
13268;DHT22;6702;47.068;15.458;2022-07-26T02:54:16;25.50;89.70
13268;DHT22;6702;47.068;15.458;2022-07-26T02:57:19;25.40;89.10
13268;DHT22;6702;47.068;15.458;2022-07-26T03:00:24;25.40;89.30
13268;DHT22;6702;47.068;15.458;2022-07-26T03:03:27;25.40;89.30
13268;DHT22;6702;47.068;15.458;2022-07-26T03:06:30;25.30;88.90
13268;DHT22;6702;47.068;15.458;2022-07-26T03:09:35;25.30;89.00
13268;DHT22;6702;47.068;15.458;2022-07-26T03:12:38;25.30;88.50
13268;DHT22;6702;47.068;15.458;2022-07-26T03:15:41;25.30;88.30
13268;DHT22;6702;47.068;15.458;2022-07-26T03:18:44;25.30;88.40
13268;DHT22;6702;47.068;15.458;2022-07-26T03:21:47;25.30;88.60
13268;DHT22;6702;47.068;15.458;2022-07-26T03:24:52;25.20;88.80
13268;DHT22;6702;47.068;15.458;2022-07-26T03:27:55;25.20;89.20
13268;DHT22;6702;47.068;15.458;2022-07-26T03:30:59;25.20;89.20
13268;DHT22;6702;47.068;15.458;2022-07-26T03:34:02;25.20;89.30
13268;DHT22;6702;47.068;15.458;2022-07-26T03:37:06;25.20;89.60
13268;DHT22;6702;47.068;15.458;2022-07-26T03:40:12;25.10;89.90
13268;DHT22;6702;47.068;15.458;2022-07-26T03:43:15;25.00;90.10
13268;DHT22;6702;47.068;15.458;2022-07-26T03:46:23;25.00;90.20
13268;DHT22;6702;47.068;15.458;2022-07-26T03:49:26;25.00;90.20
13268;DHT22;6702;47.068;15.458;2022-07-26T03:52:30;25.00;90.20
13268;DHT22;6702;47.068;15.458;2022-07-26T03:55:34;25.00;90.20
13268;DHT22;6702;47.068;15.458;2022-07-26T03:58:57;25.00;90.50
13268;DHT22;6702;47.068;15.458;2022-07-26T04:02:00;25.00;90.70
13268;DHT22;6702;47.068;15.458;2022-07-26T04:05:04;24.90;90.80
13268;DHT22;6702;47.068;15.458;2022-07-26T04:08:08;24.90;91.00
13268;DHT22;6702;47.068;15.458;2022-07-26T04:11:13;24.90;91.10
13268;DHT22;6702;47.068;15.458;2022-07-26T04:14:16;25.00;91.40
13268;DHT22;6702;47.068;15.458;2022-07-26T04:17:19;25.00;90.90
13268;DHT22;6702;47.068;15.458;2022-07-26T04:20:22;25.00;91.10
13268;DHT22;6702;47.068;15.458;2022-07-26T04:23:25;25.00;91.00
13268;DHT22;6702;47.068;15.458;2022-07-26T04:26:30;25.00;91.10
13268;DHT22;6702;47.068;15.458;2022-07-26T04:29:33;25.10;91.20
13268;DHT22;6702;47.068;15.458;2022-07-26T04:32:36;25.20;91.00
13268;DHT22;6702;47.068;15.458;2022-07-26T04:35:39;25.20;91.00
13268;DHT22;6702;47.068;15.458;2022-07-26T04:38:43;25.20;91.00
13268;DHT22;6702;47.068;15.458;2022-07-26T04:41:47;25.20;91.00
13268;DHT22;6702;47.068;15.458;2022-07-26T04:44:50;25.20;91.40
13268;DHT22;6702;47.068;15.458;2022-07-26T04:47:53;25.20;91.00
13268;DHT22;6702;47.068;15.458;2022-07-26T04:50:57;25.30;91.30
13268;DHT22;6702;47.068;15.458;2022-07-26T04:54:01;25.40;90.70
13268;DHT22;6702;47.068;15.458;2022-07-26T04:57:05;25.40;91.00
13268;DHT22;6702;47.068;15.458;2022-07-26T05:00:11;25.50;90.40
13268;DHT22;6702;47.068;15.458;2022-07-26T05:03:24;25.50;90.40
13268;DHT22;6702;47.068;15.458;2022-07-26T05:06:27;25.60;90.30
13268;DHT22;6702;47.068;15.458;2022-07-26T05:09:30;25.70;90.00
13268;DHT22;6702;47.068;15.458;2022-07-26T05:12:35;25.80;90.00
13268;DHT22;6702;47.068;15.458;2022-07-26T05:15:38;26.00;90.00
13268;DHT22;6702;47.068;15.458;2022-07-26T05:18:43;26.10;89.10
13268;DHT22;6702;47.068;15.458;2022-07-26T05:21:50;26.10;88.60
13268;DHT22;6702;47.068;15.458;2022-07-26T05:24:53;26.10;88.50
13268;DHT22;6702;47.068;15.458;2022-07-26T05:27:57;26.10;87.90
13268;DHT22;6702;47.068;15.458;2022-07-26T05:31:01;26.10;87.90
13268;DHT22;6702;47.068;15.458;2022-07-26T05:34:04;26.20;87.60
13268;DHT22;6702;47.068;15.458;2022-07-26T05:37:09;26.10;87.70
13268;DHT22;6702;47.068;15.458;2022-07-26T05:40:13;26.00;87.80
13268;DHT22;6702;47.068;15.458;2022-07-26T05:43:17;26.10;87.20
13268;DHT22;6702;47.068;15.458;2022-07-26T05:46:20;26.10;87.70
13268;DHT22;6702;47.068;15.458;2022-07-26T05:49:24;26.10;86.50
13268;DHT22;6702;47.068;15.458;2022-07-26T05:52:40;26.10;85.80
13268;DHT22;6702;47.068;15.458;2022-07-26T05:55:43;26.10;87.00
13268;DHT22;6702;47.068;15.458;2022-07-26T05:58:48;26.10;87.20
13268;DHT22;6702;47.068;15.458;2022-07-26T06:01:51;26.00;88.70
13268;DHT22;6702;47.068;15.458;2022-07-26T06:04:57;26.00;88.90
13268;DHT22;6702;47.068;15.458;2022-07-26T06:08:00;26.00;89.20
13268;DHT22;6702;47.068;15.458;2022-07-26T06:11:03;25.90;88.80
13268;DHT22;6702;47.068;15.458;2022-07-26T06:14:08;25.90;88.00
13268;DHT22;6702;47.068;15.458;2022-07-26T06:17:12;25.80;88.00
13268;DHT22;6702;47.068;15.458;2022-07-26T06:20:15;25.80;86.80
13268;DHT22;6702;47.068;15.458;2022-07-26T06:23:18;25.80;86.10
13268;DHT22;6702;47.068;15.458;2022-07-26T06:26:35;25.70;85.30
13268;DHT22;6702;47.068;15.458;2022-07-26T06:29:40;25.70;84.30
13268;DHT22;6702;47.068;15.458;2022-07-26T06:32:43;25.60;84.50
13268;DHT22;6702;47.068;15.458;2022-07-26T06:35:46;25.60;85.20
13268;DHT22;6702;47.068;15.458;2022-07-26T06:38:49;25.60;84.40
13268;DHT22;6702;47.068;15.458;2022-07-26T06:41:52;25.60;83.20
13268;DHT22;6702;47.068;15.458;2022-07-26T06:44:57;25.60;82.70
13268;DHT22;6702;47.068;15.458;2022-07-26T06:48:00;25.60;82.90
13268;DHT22;6702;47.068;15.458;2022-07-26T06:51:03;25.60;82.80
13268;DHT22;6702;47.068;15.458;2022-07-26T06:54:06;25.60;82.50
13268;DHT22;6702;47.068;15.458;2022-07-26T06:57:10;25.60;82.80
13268;DHT22;6702;47.068;15.458;2022-07-26T07:00:16;25.70;82.20
13268;DHT22;6702;47.068;15.458;2022-07-26T07:03:20;25.70;82.20
13268;DHT22;6702;47.068;15.458;2022-07-26T07:06:23;25.70;81.70
13268;DHT22;6702;47.068;15.458;2022-07-26T07:09:26;25.70;81.80
13268;DHT22;6702;47.068;15.458;2022-07-26T07:12:29;25.70;81.50
13268;DHT22;6702;47.068;15.458;2022-07-26T07:15:34;25.70;81.20
13268;DHT22;6702;47.068;15.458;2022-07-26T07:18:37;25.70;81.70
13268;DHT22;6702;47.068;15.458;2022-07-26T07:21:40;25.70;81.40
13268;DHT22;6702;47.068;15.458;2022-07-26T07:24:43;25.70;81.40
13268;DHT22;6702;47.068;15.458;2022-07-26T07:27:47;25.70;80.80
13268;DHT22;6702;47.068;15.458;2022-07-26T07:30:51;25.70;81.30
13268;DHT22;6702;47.068;15.458;2022-07-26T07:33:54;25.80;82.20
13268;DHT22;6702;47.068;15.458;2022-07-26T07:36:58;25.90;81.10
13268;DHT22;6702;47.068;15.458;2022-07-26T07:40:03;25.90;81.60
13268;DHT22;6702;47.068;15.458;2022-07-26T07:43:06;25.90;80.50
13268;DHT22;6702;47.068;15.458;2022-07-26T07:46:11;25.90;80.10
13268;DHT22;6702;47.068;15.458;2022-07-26T07:49:14;25.90;79.60
13268;DHT22;6702;47.068;15.458;2022-07-26T07:52:18;25.90;80.20
13268;DHT22;6702;47.068;15.458;2022-07-26T07:55:21;25.80;80.40
13268;DHT22;6702;47.068;15.458;2022-07-26T07:58:44;25.90;80.50
13268;DHT22;6702;47.068;15.458;2022-07-26T08:01:49;25.80;80.90
13268;DHT22;6702;47.068;15.458;2022-07-26T08:04:52;25.80;81.30
13268;DHT22;6702;47.068;15.458;2022-07-26T08:08:00;25.80;82.40
13268;DHT22;6702;47.068;15.458;2022-07-26T08:11:04;25.80;81.80
13268;DHT22;6702;47.068;15.458;2022-07-26T08:14:08;25.80;82.60
13268;DHT22;6702;47.068;15.458;2022-07-26T08:17:13;25.70;81.80
13268;DHT22;6702;47.068;15.458;2022-07-26T08:20:16;25.70;81.80
13268;DHT22;6702;47.068;15.458;2022-07-26T08:23:23;25.80;81.60
13268;DHT22;6702;47.068;15.458;2022-07-26T08:26:26;25.70;82.10
13268;DHT22;6702;47.068;15.458;2022-07-26T08:29:29;25.80;82.10
13268;DHT22;6702;47.068;15.458;2022-07-26T08:32:34;25.80;81.90
13268;DHT22;6702;47.068;15.458;2022-07-26T08:35:37;25.80;82.70
13268;DHT22;6702;47.068;15.458;2022-07-26T08:38:40;25.80;82.80
13268;DHT22;6702;47.068;15.458;2022-07-26T08:41:43;25.80;82.20
13268;DHT22;6702;47.068;15.458;2022-07-26T08:44:47;25.90;82.90
13268;DHT22;6702;47.068;15.458;2022-07-26T08:47:52;25.90;82.70
13268;DHT22;6702;47.068;15.458;2022-07-26T08:51:16;25.90;83.00
13268;DHT22;6702;47.068;15.458;2022-07-26T08:54:22;26.00;83.20
13268;DHT22;6702;47.068;15.458;2022-07-26T08:57:25;26.10;83.30
13268;DHT22;6702;47.068;15.458;2022-07-26T09:00:29;26.30;83.00
13268;DHT22;6702;47.068;15.458;2022-07-26T09:03:34;26.50;82.90
13268;DHT22;6702;47.068;15.458;2022-07-26T09:06:53;26.70;82.50
13268;DHT22;6702;47.068;15.458;2022-07-26T09:09:58;26.90;81.90
13268;DHT22;6702;47.068;15.458;2022-07-26T09:13:01;27.00;82.20
13268;DHT22;6702;47.068;15.458;2022-07-26T09:16:08;27.00;81.90
13268;DHT22;6702;47.068;15.458;2022-07-26T09:19:18;27.10;81.50
13268;DHT22;6702;47.068;15.458;2022-07-26T09:22:23;27.20;81.60
13268;DHT22;6702;47.068;15.458;2022-07-26T09:25:28;27.20;81.60
13268;DHT22;6702;47.068;15.458;2022-07-26T09:28:31;27.40;80.70
13268;DHT22;6702;47.068;15.458;2022-07-26T09:31:35;27.50;80.70
13268;DHT22;6702;47.068;15.458;2022-07-26T09:34:40;27.60;80.90
13268;DHT22;6702;47.068;15.458;2022-07-26T09:37:53;27.80;79.80
13268;DHT22;6702;47.068;15.458;2022-07-26T09:40:56;28.00;79.40
13268;DHT22;6702;47.068;15.458;2022-07-26T09:44:03;28.20;79.10
13268;DHT22;6702;47.068;15.458;2022-07-26T09:47:06;28.20;79.20
13268;DHT22;6702;47.068;15.458;2022-07-26T09:50:13;28.20;80.00
13268;DHT22;6702;47.068;15.458;2022-07-26T09:53:17;27.90;80.30
13268;DHT22;6702;47.068;15.458;2022-07-26T09:56:22;27.50;81.80
13268;DHT22;6702;47.068;15.458;2022-07-26T09:59:26;27.30;83.70
13268;DHT22;6702;47.068;15.458;2022-07-26T10:02:30;27.40;83.40
13268;DHT22;6702;47.068;15.458;2022-07-26T10:05:35;27.70;83.10
13268;DHT22;6702;47.068;15.458;2022-07-26T10:08:38;27.80;82.60
13268;DHT22;6702;47.068;15.458;2022-07-26T10:11:44;27.90;82.80
13268;DHT22;6702;47.068;15.458;2022-07-26T10:14:49;28.10;82.40
13268;DHT22;6702;47.068;15.458;2022-07-26T10:17:53;28.10;81.90
13268;DHT22;6702;47.068;15.458;2022-07-26T10:20:57;28.20;82.40
13268;DHT22;6702;47.068;15.458;2022-07-26T10:24:01;27.90;83.90
13268;DHT22;6702;47.068;15.458;2022-07-26T10:27:05;28.00;83.70
13268;DHT22;6702;47.068;15.458;2022-07-26T10:30:20;28.00;82.10
13268;DHT22;6702;47.068;15.458;2022-07-26T10:33:24;27.70;80.20
13268;DHT22;6702;47.068;15.458;2022-07-26T10:36:34;27.60;81.30
13268;DHT22;6702;47.068;15.458;2022-07-26T10:39:38;27.30;82.80
13268;DHT22;6702;47.068;15.458;2022-07-26T10:42:42;27.50;83.00
13268;DHT22;6702;47.068;15.458;2022-07-26T10:45:46;27.60;81.90
13268;DHT22;6702;47.068;15.458;2022-07-26T10:48:55;27.60;81.90
13268;DHT22;6702;47.068;15.458;2022-07-26T10:52:08;27.70;82.00
13268;DHT22;6702;47.068;15.458;2022-07-26T10:55:12;27.90;82.20
13268;DHT22;6702;47.068;15.458;2022-07-26T10:58:15;28.10;81.00
13268;DHT22;6702;47.068;15.458;2022-07-26T11:01:18;28.20;80.30
13268;DHT22;6702;47.068;15.458;2022-07-26T11:04:23;28.30;79.70
13268;DHT22;6702;47.068;15.458;2022-07-26T11:07:29;28.40;78.90
13268;DHT22;6702;47.068;15.458;2022-07-26T11:10:34;28.40;78.50
13268;DHT22;6702;47.068;15.458;2022-07-26T11:13:38;28.40;78.30
13268;DHT22;6702;47.068;15.458;2022-07-26T11:16:42;28.40;77.80
13268;DHT22;6702;47.068;15.458;2022-07-26T11:19:46;28.10;77.20
13268;DHT22;6702;47.068;15.458;2022-07-26T11:22:50;28.30;78.10
13268;DHT22;6702;47.068;15.458;2022-07-26T11:26:11;28.80;77.40
13268;DHT22;6702;47.068;15.458;2022-07-26T11:29:24;29.20;75.30
13268;DHT22;6702;47.068;15.458;2022-07-26T11:32:39;29.40;74.10
13268;DHT22;6702;47.068;15.458;2022-07-26T11:35:53;29.50;72.40
13268;DHT22;6702;47.068;15.458;2022-07-26T11:38:57;29.80;72.10
13268;DHT22;6702;47.068;15.458;2022-07-26T11:42:03;30.20;71.80
13268;DHT22;6702;47.068;15.458;2022-07-26T11:45:08;30.60;69.80
13268;DHT22;6702;47.068;15.458;2022-07-26T11:48:12;30.90;67.70
13268;DHT22;6702;47.068;15.458;2022-07-26T11:51:17;30.80;67.10
13268;DHT22;6702;47.068;15.458;2022-07-26T11:54:23;30.80;65.90
13268;DHT22;6702;47.068;15.458;2022-07-26T11:57:28;30.60;66.30
13268;DHT22;6702;47.068;15.458;2022-07-26T12:00:32;30.80;65.40
13268;DHT22;6702;47.068;15.458;2022-07-26T12:03:35;31.10;65.40
13268;DHT22;6702;47.068;15.458;2022-07-26T12:06:39;30.90;65.00
13268;DHT22;6702;47.068;15.458;2022-07-26T12:09:48;30.80;63.90
13268;DHT22;6702;47.068;15.458;2022-07-26T12:13:09;30.80;64.10
13268;DHT22;6702;47.068;15.458;2022-07-26T12:16:12;30.90;64.50
13268;DHT22;6702;47.068;15.458;2022-07-26T12:19:27;31.00;64.00
13268;DHT22;6702;47.068;15.458;2022-07-26T12:22:30;31.10;64.20
13268;DHT22;6702;47.068;15.458;2022-07-26T12:25:35;31.40;63.30
13268;DHT22;6702;47.068;15.458;2022-07-26T12:28:45;31.20;63.10
13268;DHT22;6702;47.068;15.458;2022-07-26T12:32:03;31.40;62.10
13268;DHT22;6702;47.068;15.458;2022-07-26T12:35:13;30.90;63.00
13268;DHT22;6702;47.068;15.458;2022-07-26T12:38:17;30.50;65.40
13268;DHT22;6702;47.068;15.458;2022-07-26T12:41:32;30.60;65.80
13268;DHT22;6702;47.068;15.458;2022-07-26T12:44:35;30.90;64.60
13268;DHT22;6702;47.068;15.458;2022-07-26T12:47:40;31.10;63.10
13268;DHT22;6702;47.068;15.458;2022-07-26T12:50:44;30.90;62.20
13268;DHT22;6702;47.068;15.458;2022-07-26T12:53:47;30.30;63.40
13268;DHT22;6702;47.068;15.458;2022-07-26T12:56:51;29.90;64.60
13268;DHT22;6702;47.068;15.458;2022-07-26T12:59:56;30.00;64.30
13268;DHT22;6702;47.068;15.458;2022-07-26T13:02:59;30.00;64.30
13268;DHT22;6702;47.068;15.458;2022-07-26T13:06:02;30.10;64.30
13268;DHT22;6702;47.068;15.458;2022-07-26T13:09:05;30.00;64.60
13268;DHT22;6702;47.068;15.458;2022-07-26T13:12:10;29.80;64.10
13268;DHT22;6702;47.068;15.458;2022-07-26T13:15:14;29.90;65.50
13268;DHT22;6702;47.068;15.458;2022-07-26T13:18:17;30.10;63.00
13268;DHT22;6702;47.068;15.458;2022-07-26T13:21:20;30.10;63.80
13268;DHT22;6702;47.068;15.458;2022-07-26T13:24:24;30.00;63.20
13268;DHT22;6702;47.068;15.458;2022-07-26T13:27:29;29.70;64.20
13268;DHT22;6702;47.068;15.458;2022-07-26T13:30:38;29.70;63.70
13268;DHT22;6702;47.068;15.458;2022-07-26T13:33:44;29.70;63.60
13268;DHT22;6702;47.068;15.458;2022-07-26T13:36:47;29.50;64.40
13268;DHT22;6702;47.068;15.458;2022-07-26T13:39:50;29.60;64.00
13268;DHT22;6702;47.068;15.458;2022-07-26T13:42:55;29.50;63.50
13268;DHT22;6702;47.068;15.458;2022-07-26T13:45:58;29.50;63.60
13268;DHT22;6702;47.068;15.458;2022-07-26T13:49:03;29.50;64.40
13268;DHT22;6702;47.068;15.458;2022-07-26T13:52:06;29.40;64.40
13268;DHT22;6702;47.068;15.458;2022-07-26T13:55:17;29.30;64.80
13268;DHT22;6702;47.068;15.458;2022-07-26T13:58:22;29.20;66.50
13268;DHT22;6702;47.068;15.458;2022-07-26T14:01:25;29.40;66.10
13268;DHT22;6702;47.068;15.458;2022-07-26T14:04:45;29.20;66.10
13268;DHT22;6702;47.068;15.458;2022-07-26T14:07:49;29.40;65.50
13268;DHT22;6702;47.068;15.458;2022-07-26T14:10:52;29.30;65.40
13268;DHT22;6702;47.068;15.458;2022-07-26T14:13:57;29.30;65.40
13268;DHT22;6702;47.068;15.458;2022-07-26T14:17:00;29.50;65.80
13268;DHT22;6702;47.068;15.458;2022-07-26T14:20:04;29.60;64.60
13268;DHT22;6702;47.068;15.458;2022-07-26T14:23:08;29.70;64.90
13268;DHT22;6702;47.068;15.458;2022-07-26T14:26:11;29.80;65.60
13268;DHT22;6702;47.068;15.458;2022-07-26T14:29:15;29.90;65.30
13268;DHT22;6702;47.068;15.458;2022-07-26T14:32:18;29.80;65.30
13268;DHT22;6702;47.068;15.458;2022-07-26T14:35:23;29.70;65.30
13268;DHT22;6702;47.068;15.458;2022-07-26T14:38:26;29.60;65.50
13268;DHT22;6702;47.068;15.458;2022-07-26T14:41:31;29.70;64.90
13268;DHT22;6702;47.068;15.458;2022-07-26T14:44:35;29.30;66.10
13268;DHT22;6702;47.068;15.458;2022-07-26T14:47:45;29.50;65.90
13268;DHT22;6702;47.068;15.458;2022-07-26T14:50:48;29.70;65.80
13268;DHT22;6702;47.068;15.458;2022-07-26T14:54:11;29.90;64.90
13268;DHT22;6702;47.068;15.458;2022-07-26T14:57:15;30.10;64.80
13268;DHT22;6702;47.068;15.458;2022-07-26T15:00:21;30.30;64.50
13268;DHT22;6702;47.068;15.458;2022-07-26T15:03:24;30.40;62.70
13268;DHT22;6702;47.068;15.458;2022-07-26T15:06:27;30.40;63.50
13268;DHT22;6702;47.068;15.458;2022-07-26T15:09:31;30.20;63.30
13268;DHT22;6702;47.068;15.458;2022-07-26T15:12:34;30.00;63.90
13268;DHT22;6702;47.068;15.458;2022-07-26T15:15:38;30.00;65.50
13268;DHT22;6702;47.068;15.458;2022-07-26T15:18:42;29.80;66.20
13268;DHT22;6702;47.068;15.458;2022-07-26T15:21:45;30.00;65.50
13268;DHT22;6702;47.068;15.458;2022-07-26T15:24:48;30.00;64.80
13268;DHT22;6702;47.068;15.458;2022-07-26T15:27:52;30.00;65.50
13268;DHT22;6702;47.068;15.458;2022-07-26T15:30:56;30.00;65.30
13268;DHT22;6702;47.068;15.458;2022-07-26T15:34:00;30.10;65.40
13268;DHT22;6702;47.068;15.458;2022-07-26T15:37:03;30.10;65.70
13268;DHT22;6702;47.068;15.458;2022-07-26T15:40:07;29.80;66.30
13268;DHT22;6702;47.068;15.458;2022-07-26T15:43:10;29.70;66.90
13268;DHT22;6702;47.068;15.458;2022-07-26T15:46:14;29.60;67.10
13268;DHT22;6702;47.068;15.458;2022-07-26T15:49:18;29.50;67.40
13268;DHT22;6702;47.068;15.458;2022-07-26T15:52:22;29.40;67.60
13268;DHT22;6702;47.068;15.458;2022-07-26T15:55:25;29.40;67.60
13268;DHT22;6702;47.068;15.458;2022-07-26T15:58:28;29.40;67.70
13268;DHT22;6702;47.068;15.458;2022-07-26T16:01:35;29.20;68.30
13268;DHT22;6702;47.068;15.458;2022-07-26T16:04:38;29.20;69.90
13268;DHT22;6702;47.068;15.458;2022-07-26T16:07:42;29.10;72.10
13268;DHT22;6702;47.068;15.458;2022-07-26T16:10:46;29.00;73.70
13268;DHT22;6702;47.068;15.458;2022-07-26T16:13:49;28.90;74.70
13268;DHT22;6702;47.068;15.458;2022-07-26T16:17:03;29.00;76.20
13268;DHT22;6702;47.068;15.458;2022-07-26T16:20:07;29.20;76.40
13268;DHT22;6702;47.068;15.458;2022-07-26T16:23:11;29.30;76.90
13268;DHT22;6702;47.068;15.458;2022-07-26T16:26:14;29.30;77.00
13268;DHT22;6702;47.068;15.458;2022-07-26T16:29:18;29.20;76.40
13268;DHT22;6702;47.068;15.458;2022-07-26T16:32:23;29.20;77.40
13268;DHT22;6702;47.068;15.458;2022-07-26T16:35:26;29.10;78.10
13268;DHT22;6702;47.068;15.458;2022-07-26T16:38:29;29.00;79.00
13268;DHT22;6702;47.068;15.458;2022-07-26T16:41:33;28.90;79.10
13268;DHT22;6702;47.068;15.458;2022-07-26T16:44:37;28.70;80.10
13268;DHT22;6702;47.068;15.458;2022-07-26T16:47:41;28.60;80.20
13268;DHT22;6702;47.068;15.458;2022-07-26T16:50:44;28.40;80.80
13268;DHT22;6702;47.068;15.458;2022-07-26T16:53:47;28.30;81.90
13268;DHT22;6702;47.068;15.458;2022-07-26T16:56:53;28.10;82.80
13268;DHT22;6702;47.068;15.458;2022-07-26T16:59:56;27.90;83.70
13268;DHT22;6702;47.068;15.458;2022-07-26T17:03:00;27.70;84.30
13268;DHT22;6702;47.068;15.458;2022-07-26T17:06:04;27.60;85.90
13268;DHT22;6702;47.068;15.458;2022-07-26T17:09:08;27.50;86.80
13268;DHT22;6702;47.068;15.458;2022-07-26T17:12:16;27.40;87.40
13268;DHT22;6702;47.068;15.458;2022-07-26T17:15:19;27.30;88.80
13268;DHT22;6702;47.068;15.458;2022-07-26T17:18:23;27.00;89.50
13268;DHT22;6702;47.068;15.458;2022-07-26T17:21:27;26.90;88.90
13268;DHT22;6702;47.068;15.458;2022-07-26T17:24:30;26.80;89.20
13268;DHT22;6702;47.068;15.458;2022-07-26T17:27:33;26.70;89.90
13268;DHT22;6702;47.068;15.458;2022-07-26T17:30:37;26.80;90.00
13268;DHT22;6702;47.068;15.458;2022-07-26T17:33:41;26.70;90.10
13268;DHT22;6702;47.068;15.458;2022-07-26T17:36:44;26.60;90.10
13268;DHT22;6702;47.068;15.458;2022-07-26T17:39:48;26.50;90.20
13268;DHT22;6702;47.068;15.458;2022-07-26T17:42:54;26.50;90.40
13268;DHT22;6702;47.068;15.458;2022-07-26T17:45:57;26.50;90.50
13268;DHT22;6702;47.068;15.458;2022-07-26T17:49:02;26.50;90.50
13268;DHT22;6702;47.068;15.458;2022-07-26T17:52:05;26.50;90.70
13268;DHT22;6702;47.068;15.458;2022-07-26T17:55:09;26.50;90.70
13268;DHT22;6702;47.068;15.458;2022-07-26T17:58:12;26.50;90.80
13268;DHT22;6702;47.068;15.458;2022-07-26T18:01:15;26.40;90.70
13268;DHT22;6702;47.068;15.458;2022-07-26T18:04:20;26.40;90.80
13268;DHT22;6702;47.068;15.458;2022-07-26T18:07:23;26.30;91.10
13268;DHT22;6702;47.068;15.458;2022-07-26T18:10:26;26.20;91.40
13268;DHT22;6702;47.068;15.458;2022-07-26T18:13:30;26.20;91.40
13268;DHT22;6702;47.068;15.458;2022-07-26T18:16:33;26.10;91.20
13268;DHT22;6702;47.068;15.458;2022-07-26T18:19:38;26.00;91.40
13268;DHT22;6702;47.068;15.458;2022-07-26T18:22:41;25.80;91.90
13268;DHT22;6702;47.068;15.458;2022-07-26T18:25:48;25.70;92.30
13268;DHT22;6702;47.068;15.458;2022-07-26T18:28:51;25.40;93.00
13268;DHT22;6702;47.068;15.458;2022-07-26T18:31:54;25.40;93.20
13268;DHT22;6702;47.068;15.458;2022-07-26T18:35:00;25.40;93.30
13268;DHT22;6702;47.068;15.458;2022-07-26T18:38:03;25.40;93.30
13268;DHT22;6702;47.068;15.458;2022-07-26T18:41:07;25.40;93.20
13268;DHT22;6702;47.068;15.458;2022-07-26T18:44:11;25.40;93.40
13268;DHT22;6702;47.068;15.458;2022-07-26T18:47:14;25.40;93.90
13268;DHT22;6702;47.068;15.458;2022-07-26T18:50:18;25.40;93.50
13268;DHT22;6702;47.068;15.458;2022-07-26T18:53:23;25.30;93.60
13268;DHT22;6702;47.068;15.458;2022-07-26T18:56:26;25.20;93.70
13268;DHT22;6702;47.068;15.458;2022-07-26T18:59:29;25.20;93.90
13268;DHT22;6702;47.068;15.458;2022-07-26T19:02:32;25.20;93.80
13268;DHT22;6702;47.068;15.458;2022-07-26T19:05:37;25.20;93.80
13268;DHT22;6702;47.068;15.458;2022-07-26T19:08:40;25.10;93.90
13268;DHT22;6702;47.068;15.458;2022-07-26T19:11:43;25.20;93.90
13268;DHT22;6702;47.068;15.458;2022-07-26T19:14:47;25.00;94.20
13268;DHT22;6702;47.068;15.458;2022-07-26T19:17:50;25.00;94.40
13268;DHT22;6702;47.068;15.458;2022-07-26T19:20:54;24.90;94.50
13268;DHT22;6702;47.068;15.458;2022-07-26T19:23:58;24.90;94.50
13268;DHT22;6702;47.068;15.458;2022-07-26T19:27:01;24.90;94.70